createdAt,value
2018-09-21T00:01:21.802Z,7.77
2018-09-21T00:03:55.354Z,6.93
2018-09-21T00:06:23.918Z,7.50
2018-09-21T00:08:53.085Z,7.03
2018-09-21T00:11:21.304Z,7.93
2018-09-21T00:13:50.104Z,7.90
2018-09-21T00:16:19.130Z,8.70
2018-09-21T00:18:47.380Z,7.57
2018-09-21T00:21:15.910Z,8.47
2018-09-21T00:23:44.143Z,6.70
2018-09-21T00:26:12.335Z,7.87
2018-09-21T00:28:40.571Z,7.63
2018-09-21T00:31:09.087Z,6.67
2018-09-21T00:33:37.342Z,7.30
2018-09-21T00:36:05.587Z,7.53
2018-09-21T00:38:33.818Z,6.60
2018-09-21T00:41:02.010Z,7.23
2018-09-21T00:43:36.567Z,6.90
2018-09-21T00:46:04.918Z,7.40
2018-09-21T00:48:33.724Z,7.30
2018-09-21T00:51:01.938Z,6.87
2018-09-21T00:53:30.167Z,7.33
2018-09-21T00:55:58.354Z,7.37
2018-09-21T00:58:26.843Z,7.23
2018-09-21T01:00:55.062Z,6.77
2018-09-21T01:03:23.275Z,7.20
2018-09-21T01:05:51.459Z,6.10
2018-09-21T01:08:19.703Z,6.40
2018-09-21T01:10:47.893Z,7.20
2018-09-21T01:13:16.115Z,7.43
2018-09-21T01:15:44.314Z,6.80
2018-09-21T01:18:12.527Z,7.10
2018-09-21T01:20:40.714Z,6.77
2018-09-21T01:23:08.954Z,8.67
2018-09-21T01:25:37.154Z,6.60
2018-09-21T01:28:05.350Z,7.07
2018-09-21T01:30:33.551Z,5.70
2018-09-21T01:33:01.790Z,6.00
2018-09-21T01:35:29.990Z,6.33
2018-09-21T01:37:58.190Z,5.90
2018-09-21T01:40:26.514Z,6.10
2018-09-21T01:42:54.735Z,6.45
2018-09-21T01:45:22.938Z,5.92
2018-09-21T01:47:51.159Z,6.20
2018-09-21T01:50:19.424Z,6.58
2018-09-21T01:52:47.603Z,6.03
2018-09-21T01:55:15.807Z,6.50
2018-09-21T01:57:44.015Z,6.60
2018-09-21T02:00:12.251Z,7.03
2018-09-21T02:02:40.454Z,6.25
2018-09-21T02:05:08.663Z,6.10
2018-09-21T02:07:36.871Z,6.15
2018-09-21T02:10:05.138Z,5.95
2018-09-21T02:12:33.359Z,6.87
2018-09-21T02:15:01.588Z,6.20
2018-09-21T02:17:29.792Z,5.65
2018-09-21T02:19:58.027Z,6.40
2018-09-21T02:22:26.258Z,6.58
2018-09-21T02:24:54.476Z,6.20
2018-09-21T02:27:22.678Z,5.83
2018-09-21T02:29:50.883Z,6.50
2018-09-21T02:32:19.099Z,6.35
2018-09-21T02:34:47.307Z,6.55
2018-09-21T02:37:15.518Z,6.20
2018-09-21T02:39:43.736Z,6.45
2018-09-21T02:42:11.942Z,5.92
2018-09-21T02:44:40.155Z,6.12
2018-09-21T02:47:08.351Z,6.40
2018-09-21T02:49:36.782Z,6.50
2018-09-21T02:52:05.004Z,6.12
2018-09-21T02:54:33.231Z,5.85
2018-09-21T02:57:01.435Z,6.08
2018-09-21T02:59:29.712Z,7.10
2018-09-21T03:01:57.930Z,6.45
2018-09-21T03:04:26.149Z,6.20
2018-09-21T03:06:54.410Z,6.12
2018-09-21T03:09:22.627Z,6.15
2018-09-21T03:11:50.834Z,5.87
2018-09-21T03:14:19.066Z,6.33
2018-09-21T03:16:47.267Z,5.87
2018-09-21T03:19:15.532Z,5.90
2018-09-21T03:21:43.755Z,6.37
2018-09-21T03:24:11.978Z,5.72
2018-09-21T03:26:40.196Z,6.03
2018-09-21T03:29:08.407Z,6.28
2018-09-21T03:31:36.655Z,5.78
2018-09-21T03:34:04.883Z,5.80
2018-09-21T03:36:33.083Z,5.72
2018-09-21T03:39:01.943Z,5.28
2018-09-21T03:41:30.169Z,6.15
2018-09-21T03:43:58.378Z,6.15
2018-09-21T03:46:26.582Z,6.33
2018-09-21T03:48:54.851Z,6.10
2018-09-21T03:51:23.060Z,5.75
2018-09-21T03:53:51.296Z,5.70
2018-09-21T03:56:19.494Z,5.72
2018-09-21T03:58:47.700Z,5.87
2018-09-21T04:01:15.971Z,5.58
2018-09-21T04:03:44.129Z,5.92
2018-09-21T04:06:12.372Z,5.92
2018-09-21T04:08:40.603Z,6.03
2018-09-21T04:11:08.839Z,5.37
2018-09-21T04:13:37.064Z,5.72
2018-09-21T04:16:05.487Z,6.00
2018-09-21T04:18:33.736Z,5.40
2018-09-21T04:21:02.075Z,6.08
2018-09-21T04:23:30.288Z,5.83
2018-09-21T04:25:58.502Z,5.75
2018-09-21T04:28:26.715Z,5.95
2018-09-21T04:30:54.937Z,5.53
2018-09-21T04:33:23.166Z,5.55
2018-09-21T04:35:51.382Z,5.87
2018-09-21T04:38:19.606Z,5.67
2018-09-21T04:40:47.827Z,17.05
2018-09-21T04:43:16.040Z,6.80
2018-09-21T04:45:44.321Z,6.15
2018-09-21T04:48:13.183Z,5.60
2018-09-21T04:50:41.426Z,6.25
2018-09-21T04:53:09.670Z,6.25
2018-09-21T04:55:37.893Z,5.97
2018-09-21T04:58:06.079Z,5.62
2018-09-21T05:00:34.287Z,5.90
2018-09-21T05:03:03.145Z,5.47
2018-09-21T05:05:31.388Z,6.28
2018-09-21T05:07:59.594Z,5.58
2018-09-21T05:10:27.790Z,5.37
2018-09-21T05:12:55.987Z,5.87
2018-09-21T05:15:24.182Z,5.80
2018-09-21T05:17:52.382Z,6.30
2018-09-21T05:20:20.594Z,5.97
2018-09-21T05:22:48.804Z,5.70
2018-09-21T05:25:17.029Z,6.22
2018-09-21T05:27:45.221Z,5.45
2018-09-21T05:30:13.441Z,5.25
2018-09-21T05:32:41.647Z,5.40
2018-09-21T05:35:09.942Z,4.90
2018-09-21T05:37:38.079Z,5.62
2018-09-21T05:40:06.339Z,5.03
2018-09-21T05:42:34.543Z,5.00
2018-09-21T05:45:02.930Z,5.70
2018-09-21T05:47:31.167Z,5.95
2018-09-21T05:49:59.395Z,5.45
2018-09-21T05:52:28.263Z,5.53
2018-09-21T05:54:56.462Z,5.78
2018-09-21T05:57:24.685Z,5.58
2018-09-21T05:59:52.882Z,5.60
2018-09-21T06:02:21.150Z,5.53
2018-09-21T06:04:53.567Z,5.95
2018-09-21T06:07:21.803Z,5.45
2018-09-21T06:09:50.015Z,5.45
2018-09-21T06:12:18.237Z,5.40
2018-09-21T06:14:46.439Z,5.25
2018-09-21T06:17:14.799Z,5.58
2018-09-21T06:19:43.007Z,5.37
2018-09-21T06:22:11.224Z,5.70
2018-09-21T06:24:39.497Z,5.33
2018-09-21T06:27:07.794Z,5.37
2018-09-21T06:29:36.018Z,5.45
2018-09-21T06:32:04.316Z,5.20
2018-09-21T06:34:32.473Z,5.85
2018-09-21T06:37:00.708Z,5.35
2018-09-21T06:39:28.911Z,4.55
2018-09-21T06:41:57.116Z,5.37
2018-09-21T06:44:25.382Z,6.08
2018-09-21T06:46:53.551Z,5.50
2018-09-21T06:49:21.762Z,6.92
2018-09-21T06:51:50.850Z,5.60
2018-09-21T06:54:19.078Z,6.45
2018-09-21T06:56:47.302Z,6.28
2018-09-21T06:59:15.523Z,6.30
2018-09-21T07:01:43.795Z,5.28
2018-09-21T07:04:11.954Z,5.80
2018-09-21T07:06:40.219Z,5.85
2018-09-21T07:09:10.709Z,5.53
2018-09-21T07:11:38.960Z,5.90
2018-09-21T07:14:07.163Z,6.42
2018-09-21T07:16:35.386Z,5.60
2018-09-21T07:19:03.643Z,6.00
2018-09-21T07:21:31.874Z,5.42
2018-09-21T07:24:00.083Z,6.15
2018-09-21T07:26:28.308Z,5.92
2018-09-21T07:28:57.022Z,5.83
2018-09-21T07:31:25.344Z,5.80
2018-09-21T07:33:53.474Z,6.50
2018-09-21T07:36:21.703Z,5.42
2018-09-21T07:38:49.902Z,6.10
2018-09-21T07:41:18.344Z,6.12
2018-09-21T07:43:46.706Z,5.55
2018-09-21T07:46:15.349Z,6.10
2018-09-21T07:48:43.679Z,5.25
2018-09-21T07:51:11.850Z,4.95
2018-09-21T07:53:40.074Z,5.72
2018-09-21T07:56:08.279Z,5.50
2018-09-21T07:58:36.555Z,4.78
2018-09-21T08:01:04.824Z,5.10
2018-09-21T08:03:33.083Z,5.37
2018-09-21T08:06:01.307Z,5.20
2018-09-21T08:08:29.530Z,5.08
2018-09-21T08:10:57.739Z,4.45
2018-09-21T08:13:25.979Z,4.90
2018-09-21T08:15:54.182Z,5.30
2018-09-21T08:18:22.408Z,4.78
2018-09-21T08:20:50.606Z,4.53
2018-09-21T08:23:18.884Z,5.15
2018-09-21T08:25:47.104Z,4.72
2018-09-21T08:28:15.430Z,4.47
2018-09-21T08:30:43.631Z,5.37
2018-09-21T08:33:11.929Z,4.70
2018-09-21T08:35:40.093Z,4.15
2018-09-21T08:38:09.318Z,5.10
2018-09-21T08:40:37.535Z,5.55
2018-09-21T08:43:05.762Z,4.85
2018-09-21T08:45:34.098Z,5.05
2018-09-21T08:48:02.379Z,4.28
2018-09-21T08:50:30.530Z,5.00
2018-09-21T08:52:58.738Z,4.67
2018-09-21T08:55:28.567Z,4.45
2018-09-21T08:57:56.761Z,4.47
2018-09-21T09:00:24.960Z,4.53
2018-09-21T09:02:53.256Z,4.87
2018-09-21T09:05:23.314Z,4.47
2018-09-21T09:07:51.792Z,4.08
2018-09-21T09:10:22.286Z,3.80
2018-09-21T09:12:50.575Z,3.75
2018-09-21T09:15:20.367Z,4.10
2018-09-21T09:17:48.602Z,4.28
2018-09-21T09:20:16.846Z,3.92
2018-09-21T09:22:45.054Z,3.55
2018-09-21T09:25:13.253Z,3.40
2018-09-21T09:27:41.458Z,3.95
2018-09-21T09:30:09.727Z,3.40
2018-09-21T09:32:37.882Z,3.40
2018-09-21T09:35:06.109Z,3.67
2018-09-21T09:37:34.314Z,3.52
2018-09-21T09:40:02.531Z,3.47
2018-09-21T09:42:30.742Z,3.58
2018-09-21T09:44:58.955Z,4.00
2018-09-21T09:47:27.554Z,3.10
2018-09-21T09:49:55.743Z,3.12
2018-09-21T09:52:24.931Z,3.92
2018-09-21T09:54:53.145Z,3.30
2018-09-21T09:57:21.657Z,3.40
2018-09-21T09:59:49.883Z,2.98
2018-09-21T10:02:18.092Z,2.85
2018-09-21T10:04:46.373Z,3.10
2018-09-21T10:07:14.651Z,3.60
2018-09-21T10:09:42.870Z,3.30
2018-09-21T10:12:12.643Z,3.22
2018-09-21T10:14:40.839Z,3.42
2018-09-21T10:17:09.039Z,3.58
2018-09-21T10:19:37.247Z,3.45
2018-09-21T10:22:05.455Z,2.90
2018-09-21T10:24:33.684Z,3.70
2018-09-21T10:27:01.948Z,3.10
2018-09-21T10:29:30.256Z,2.47
2018-09-21T10:31:59.122Z,1.98
2018-09-21T10:34:27.492Z,2.62
2018-09-21T10:36:55.793Z,1.62
2018-09-21T10:39:24.020Z,1.52
2018-09-21T10:41:52.343Z,1.10
2018-09-21T10:44:21.235Z,1.37
2018-09-21T10:46:49.482Z,1.25
2018-09-21T10:49:17.745Z,1.35
2018-09-21T10:51:46.115Z,2.30
2018-09-21T10:54:14.310Z,1.62
2018-09-21T10:56:42.511Z,1.75
2018-09-21T10:59:10.713Z,2.02
2018-09-21T11:01:38.911Z,2.55
2018-09-21T11:04:07.102Z,1.80
2018-09-21T11:06:35.315Z,1.82
2018-09-21T11:09:04.628Z,1.90
2018-09-21T11:11:32.840Z,1.87
2018-09-21T11:14:01.049Z,2.33
2018-09-21T11:16:29.251Z,1.77
2018-09-21T11:18:57.459Z,1.77
2018-09-21T11:21:25.662Z,1.77
2018-09-21T11:23:53.916Z,1.98
2018-09-21T11:26:22.111Z,1.67
2018-09-21T11:28:50.322Z,3.72
2018-09-21T11:31:18.544Z,6.50
2018-09-21T11:33:46.768Z,6.42
2018-09-21T11:36:14.988Z,2.13
2018-09-21T11:38:43.268Z,2.00
2018-09-21T11:41:11.592Z,2.20
2018-09-21T11:43:39.880Z,2.20
2018-09-21T11:46:08.116Z,1.90
2018-09-21T11:48:36.345Z,2.35
2018-09-21T11:51:04.590Z,2.55
2018-09-21T11:53:32.811Z,2.10
2018-09-21T11:56:01.675Z,2.03
2018-09-21T11:58:29.892Z,2.10
2018-09-21T12:00:58.113Z,1.83
2018-09-21T12:03:26.326Z,1.60
2018-09-21T12:05:54.523Z,2.23
2018-09-21T12:08:23.191Z,2.10
2018-09-21T12:10:51.407Z,1.97
2018-09-21T12:13:19.631Z,2.40
2018-09-21T12:15:47.913Z,2.23
2018-09-21T12:18:16.365Z,2.43
2018-09-21T12:20:44.609Z,2.33
2018-09-21T12:23:12.798Z,1.95
2018-09-21T12:25:41.031Z,2.83
2018-09-21T12:28:09.258Z,3.00
2018-09-21T12:30:37.515Z,2.00
2018-09-21T12:33:05.989Z,2.15
2018-09-21T12:35:34.843Z,2.08
2018-09-21T12:38:03.173Z,2.50
2018-09-21T12:40:31.403Z,2.30
2018-09-21T12:42:59.618Z,2.08
2018-09-21T12:45:27.879Z,1.93
2018-09-21T12:47:56.115Z,2.40
2018-09-21T12:50:24.468Z,1.80
2018-09-21T12:52:52.611Z,2.30
2018-09-21T12:55:20.840Z,1.80
2018-09-21T12:57:49.075Z,2.65
2018-09-21T13:00:17.278Z,2.22
2018-09-21T13:02:52.051Z,2.12
2018-09-21T13:05:20.282Z,2.20
2018-09-21T13:07:48.514Z,2.90
2018-09-21T13:10:17.018Z,1.90
2018-09-21T13:12:45.235Z,2.37
2018-09-21T13:15:13.471Z,2.47
2018-09-21T13:17:41.671Z,2.17
2018-09-21T13:20:10.440Z,2.20
2018-09-21T13:22:38.660Z,1.92
2018-09-21T13:25:06.874Z,2.60
2018-09-21T13:27:35.083Z,2.42
2018-09-21T13:30:04.119Z,2.15
2018-09-21T13:32:32.329Z,1.95
2018-09-21T13:35:05.198Z,1.92
2018-09-21T13:37:33.439Z,1.95
2018-09-21T13:40:01.643Z,2.20
2018-09-21T13:42:29.833Z,1.65
2018-09-21T13:44:58.615Z,1.97
2018-09-21T13:47:26.810Z,2.20
2018-09-21T13:49:55.050Z,2.70
2018-09-21T13:52:23.279Z,2.22
2018-09-21T13:54:51.499Z,2.75
2018-09-21T13:57:19.743Z,2.47
2018-09-21T13:59:48.002Z,3.00
2018-09-21T14:02:16.210Z,2.12
2018-09-21T14:04:44.474Z,1.95
2018-09-21T14:07:12.740Z,2.30
2018-09-21T14:09:40.974Z,2.93
2018-09-21T14:12:09.200Z,23.02
2018-09-21T14:14:37.402Z,2.43
2018-09-21T14:17:05.818Z,4.83
2018-09-21T14:19:34.035Z,2.33
2018-09-21T14:22:02.239Z,1.87
2018-09-21T14:24:30.438Z,2.03
2018-09-21T14:26:58.634Z,2.20
2018-09-21T14:29:26.859Z,2.30
2018-09-21T14:31:55.076Z,2.12
2018-09-21T14:34:23.306Z,2.58
2018-09-21T14:36:51.510Z,2.50
2018-09-21T14:39:19.707Z,3.45
2018-09-21T14:41:47.946Z,2.35
2018-09-21T14:44:16.171Z,2.73
2018-09-21T14:46:45.298Z,2.10
2018-09-21T14:49:13.558Z,2.70
2018-09-21T14:51:41.754Z,2.90
2018-09-21T14:54:09.957Z,2.20
2018-09-21T14:56:38.182Z,2.07
2018-09-21T14:59:06.438Z,1.97
2018-09-21T15:01:35.013Z,2.47
2018-09-21T15:04:03.234Z,1.97
2018-09-21T15:06:31.455Z,2.00
2018-09-21T15:08:59.695Z,2.13
2018-09-21T15:11:27.907Z,1.90
2018-09-21T15:13:56.122Z,1.90
2018-09-21T15:16:25.536Z,1.80
2018-09-21T15:18:53.696Z,1.30
2018-09-21T15:21:21.912Z,1.50
2018-09-21T15:23:50.098Z,1.40
2018-09-21T15:26:18.322Z,1.50
2018-09-21T15:28:46.554Z,1.20
2018-09-21T15:31:15.144Z,1.20
2018-09-21T15:33:43.342Z,1.47
2018-09-21T15:36:11.575Z,1.70
2018-09-21T15:38:39.775Z,1.27
2018-09-21T15:41:08.066Z,1.00
2018-09-21T15:43:36.320Z,1.30
2018-09-21T15:46:04.497Z,1.13
2018-09-21T15:48:32.743Z,1.17
2018-09-21T15:51:01.107Z,1.20
2018-09-21T15:53:29.295Z,0.98
2018-09-21T15:55:57.610Z,1.13
2018-09-21T15:58:26.782Z,1.17
2018-09-21T16:00:54.995Z,0.77
2018-09-21T16:03:23.223Z,1.17
2018-09-21T16:05:51.471Z,1.40
2018-09-21T16:08:19.686Z,1.80
2018-09-21T16:10:47.878Z,2.00
2018-09-21T16:13:16.126Z,1.37
2018-09-21T16:15:44.342Z,1.70
2018-09-21T16:18:12.551Z,1.80
2018-09-21T16:20:40.875Z,1.20
2018-09-21T16:23:09.754Z,1.37
2018-09-21T16:25:38.531Z,1.03
2018-09-21T16:28:06.748Z,1.30
2018-09-21T16:30:35.035Z,1.30
2018-09-21T16:33:03.260Z,1.10
2018-09-21T16:35:31.472Z,0.90
2018-09-21T16:37:59.675Z,1.00
2018-09-21T16:40:27.879Z,0.90
2018-09-21T16:42:56.093Z,1.50
2018-09-21T16:45:24.383Z,0.80
2018-09-21T16:47:52.588Z,0.90
2018-09-21T16:50:20.821Z,0.90
2018-09-21T16:52:49.052Z,0.87
2018-09-21T16:55:17.234Z,0.90
2018-09-21T16:57:45.493Z,0.87
2018-09-21T17:00:13.730Z,1.10
2018-09-21T17:02:42.542Z,0.70
2018-09-21T17:05:10.759Z,0.60
2018-09-21T17:07:39.015Z,0.80
2018-09-21T17:10:07.278Z,0.90
2018-09-21T17:12:35.582Z,1.00
2018-09-21T17:15:04.056Z,1.00
2018-09-21T17:17:32.284Z,1.00
2018-09-21T17:20:00.498Z,0.80
2018-09-21T17:22:28.703Z,0.97
2018-09-21T17:25:03.646Z,0.70
2018-09-21T17:27:31.884Z,0.87
2018-09-21T17:30:00.096Z,0.60
2018-09-21T17:32:28.325Z,0.80
2018-09-21T17:34:58.255Z,0.97
2018-09-21T17:37:26.709Z,0.67
2018-09-21T17:39:54.979Z,1.00
2018-09-21T17:42:23.215Z,0.60
2018-09-21T17:44:52.002Z,0.90
2018-09-21T17:47:20.220Z,1.00
2018-09-21T17:49:48.414Z,1.00
2018-09-21T17:52:17.100Z,0.60
2018-09-21T17:54:45.291Z,1.20
2018-09-21T17:57:13.527Z,0.70
2018-09-21T17:59:41.763Z,1.20
2018-09-21T18:02:10.702Z,0.70
2018-09-21T18:04:39.967Z,0.50
2018-09-21T18:07:08.215Z,1.17
2018-09-21T18:09:36.427Z,1.00
2018-09-21T18:12:04.626Z,1.00
2018-09-21T18:14:32.828Z,0.90
2018-09-21T18:17:01.025Z,0.80
2018-09-21T18:19:29.255Z,0.80
2018-09-21T18:21:57.455Z,0.93
2018-09-21T18:24:25.698Z,0.97
2018-09-21T18:26:53.909Z,1.13
2018-09-21T18:29:22.152Z,1.10
2018-09-21T18:31:50.342Z,0.67
2018-09-21T18:34:19.184Z,1.00
2018-09-21T18:36:47.395Z,1.37
2018-09-21T18:39:15.652Z,1.37
2018-09-21T18:41:43.863Z,1.37
2018-09-21T18:44:12.626Z,1.37
2018-09-21T18:46:41.858Z,1.07
2018-09-21T18:49:11.147Z,1.20
2018-09-21T18:51:42.582Z,1.07
2018-09-21T18:54:10.834Z,0.80
2018-09-21T18:56:39.046Z,1.30
2018-09-21T18:59:07.266Z,1.40
2018-09-21T19:01:36.391Z,0.87
2018-09-21T19:04:04.641Z,1.20
2018-09-21T19:06:32.854Z,1.10
2018-09-21T19:09:01.172Z,1.17
2018-09-21T19:11:29.393Z,1.00
2018-09-21T19:13:57.642Z,1.20
2018-09-21T19:16:25.842Z,1.10
2018-09-21T19:18:54.104Z,1.00
2018-09-21T19:21:22.282Z,1.10
2018-09-21T19:23:50.552Z,1.20
2018-09-21T19:26:18.766Z,1.00
2018-09-21T19:28:46.987Z,1.30
2018-09-21T19:31:15.315Z,0.90
2018-09-21T19:33:43.574Z,1.40
2018-09-21T19:36:11.802Z,1.50
2018-09-21T19:38:40.065Z,2.23
2018-09-21T19:41:08.263Z,1.67
2018-09-21T19:43:36.480Z,1.10
2018-09-21T19:46:04.680Z,1.20
2018-09-21T19:48:32.934Z,1.03
2018-09-21T19:51:01.203Z,1.10
2018-09-21T19:53:29.456Z,1.00
2018-09-21T19:55:57.655Z,1.17
2018-09-21T19:58:25.858Z,1.20
2018-09-21T20:00:54.079Z,1.20
2018-09-21T20:03:22.626Z,1.13
2018-09-21T20:05:50.831Z,1.23
2018-09-21T20:08:19.083Z,1.00
2018-09-21T20:10:47.282Z,1.53
2018-09-21T20:13:15.539Z,1.10
2018-09-21T20:15:44.136Z,1.30
2018-09-21T20:18:12.322Z,1.30
2018-09-21T20:20:40.576Z,0.93
2018-09-21T20:23:08.792Z,1.63
2018-09-21T20:25:37.027Z,1.27
2018-09-21T20:28:05.239Z,1.00
2018-09-21T20:30:38.694Z,0.90
2018-09-21T20:33:29.118Z,1.80
2018-09-21T20:35:58.038Z,1.03
2018-09-21T20:38:26.795Z,1.63
2018-09-21T20:40:55.022Z,1.20
2018-09-21T20:43:23.323Z,1.00
2018-09-21T20:45:51.782Z,1.10
2018-09-21T20:48:19.990Z,1.00
2018-09-21T20:50:48.263Z,2.00
2018-09-21T20:53:16.459Z,1.73
2018-09-21T20:55:44.715Z,1.10
2018-09-21T20:58:12.902Z,1.30
2018-09-21T21:00:41.127Z,1.27
2018-09-21T21:03:09.366Z,1.43
2018-09-21T21:05:37.628Z,1.10
2018-09-21T21:08:06.106Z,1.10
2018-09-21T21:10:34.321Z,0.80
2018-09-21T21:13:02.538Z,1.23
2018-09-21T21:15:30.735Z,1.10
2018-09-21T21:17:58.956Z,1.90
2018-09-21T21:20:27.161Z,1.60
2018-09-21T21:22:55.386Z,1.13
2018-09-21T21:25:23.624Z,1.73
2018-09-21T21:27:51.887Z,1.23
2018-09-21T21:30:20.098Z,1.30
2018-09-21T21:32:48.327Z,1.20
2018-09-21T21:35:16.563Z,1.57
2018-09-21T21:37:45.270Z,1.33
2018-09-21T21:40:13.499Z,1.53
2018-09-21T21:42:41.706Z,1.10
2018-09-21T21:45:10.647Z,1.97
2018-09-21T21:47:38.855Z,1.30
2018-09-21T21:50:07.315Z,1.13
2018-09-21T21:52:35.536Z,1.40
2018-09-21T21:55:03.754Z,1.60
2018-09-21T21:57:31.960Z,1.00
2018-09-21T22:00:00.187Z,1.43
2018-09-21T22:02:32.662Z,1.03
2018-09-21T22:05:01.067Z,1.80
2018-09-21T22:07:32.833Z,2.10
2018-09-21T22:10:02.147Z,2.43
2018-09-21T22:12:35.571Z,1.77
2018-09-21T22:15:03.822Z,1.23
2018-09-21T22:17:32.032Z,2.13
2018-09-21T22:20:00.267Z,1.17
2018-09-21T22:22:28.473Z,1.70
2018-09-21T22:24:56.722Z,1.27
2018-09-21T22:27:24.939Z,1.63
2018-09-21T22:29:53.139Z,1.77
2018-09-21T22:32:21.351Z,1.27
2018-09-21T22:34:49.587Z,1.43
2018-09-21T22:37:17.818Z,1.63
2018-09-21T22:39:46.122Z,1.40
2018-09-21T22:42:14.370Z,1.80
2018-09-21T22:44:42.563Z,1.83
2018-09-21T22:47:10.774Z,2.00
2018-09-21T22:49:38.973Z,1.57
2018-09-21T22:52:07.186Z,1.67
2018-09-21T22:54:35.414Z,2.10
2018-09-21T22:57:03.647Z,1.53
2018-09-21T22:59:31.859Z,1.63
2018-09-21T23:02:00.066Z,1.77
2018-09-21T23:04:28.277Z,1.67
2018-09-21T23:06:56.555Z,1.80
2018-09-21T23:09:24.754Z,2.10
2018-09-21T23:11:52.985Z,2.00
2018-09-21T23:14:21.199Z,1.73
2018-09-21T23:16:49.414Z,1.20
2018-09-21T23:19:17.626Z,1.50
2018-09-21T23:21:45.852Z,1.60
2018-09-21T23:24:14.046Z,1.80
2018-09-21T23:26:42.292Z,1.87
2018-09-21T23:29:10.518Z,2.10
2018-09-21T23:31:38.792Z,2.10
2018-09-21T23:34:07.007Z,1.70
2018-09-21T23:36:35.231Z,2.30
2018-09-21T23:39:03.903Z,1.93
2018-09-21T23:41:32.122Z,2.23
2018-09-21T23:44:00.326Z,1.87
2018-09-21T23:46:28.579Z,1.80
2018-09-21T23:48:56.819Z,1.53
2018-09-21T23:51:25.038Z,1.87
2018-09-21T23:53:53.246Z,1.73
2018-09-21T23:56:21.469Z,2.33
2018-09-21T23:58:49.666Z,2.23
